createdAt,value
2017-11-16T00:02:35.159Z,9.01
2017-11-16T00:32:35.105Z,8.92
2017-11-16T00:47:35.770Z,8.97
2017-11-16T01:02:37.022Z,8.97
2017-11-16T01:17:34.937Z,8.95
2017-11-16T01:32:35.348Z,8.89
2017-11-16T01:47:35.353Z,8.87
2017-11-16T02:02:41.240Z,8.92
2017-11-16T02:17:35.293Z,8.94
2017-11-16T02:32:34.782Z,8.92
2017-11-16T02:47:34.692Z,8.85
2017-11-16T03:02:34.120Z,8.81
2017-11-16T03:17:34.540Z,8.75
2017-11-16T03:32:34.977Z,8.69
2017-11-16T03:47:35.065Z,8.62
2017-11-16T04:02:34.854Z,8.60
2017-11-16T04:17:35.189Z,8.57
2017-11-16T04:32:35.318Z,8.59
2017-11-16T04:47:35.281Z,8.65
2017-11-16T05:02:35.254Z,8.66
2017-11-16T05:17:35.666Z,8.67
2017-11-16T05:32:34.941Z,8.69
2017-11-16T05:47:34.497Z,8.85
2017-11-16T06:02:34.457Z,9.06
2017-11-16T06:17:37.379Z,9.17
2017-11-16T06:32:35.013Z,9.20
2017-11-16T06:47:36.543Z,9.20
2017-11-16T07:02:36.905Z,9.30
2017-11-16T07:17:34.805Z,9.46
2017-11-16T07:32:35.092Z,9.44
2017-11-16T07:47:35.299Z,9.45
2017-11-16T08:02:39.505Z,9.60
2017-11-16T08:17:34.983Z,9.58
2017-11-16T08:32:34.487Z,9.51
2017-11-16T08:47:36.336Z,9.47
2017-11-16T09:02:34.195Z,9.52
2017-11-16T09:17:35.408Z,9.57
2017-11-16T09:32:36.604Z,9.66
2017-11-16T09:47:35.304Z,9.57
2017-11-16T10:02:36.344Z,9.52
2017-11-16T10:17:37.699Z,9.50
2017-11-16T10:32:37.981Z,9.52
2017-11-16T10:47:35.082Z,9.61
2017-11-16T11:02:35.040Z,9.89
2017-11-16T11:17:36.752Z,10.12
2017-11-16T11:32:35.296Z,10.29
2017-11-16T11:47:34.437Z,10.36
2017-11-16T12:02:34.416Z,10.23
2017-11-16T12:32:34.521Z,9.71
2017-11-16T12:47:34.541Z,9.60
2017-11-16T13:02:34.449Z,9.46
2017-11-16T13:17:34.386Z,9.33
2017-11-16T13:32:34.734Z,9.22
2017-11-16T13:47:34.902Z,9.10
2017-11-16T14:02:34.703Z,9.03
2017-11-16T14:17:34.553Z,8.93
2017-11-16T14:32:37.205Z,8.90
2017-11-16T14:47:35.210Z,8.83
2017-11-16T15:02:37.089Z,8.79
2017-11-16T15:17:35.069Z,8.71
2017-11-16T15:32:38.840Z,8.57
2017-11-16T15:47:34.458Z,8.38
2017-11-16T16:02:35.105Z,8.29
2017-11-16T16:17:36.299Z,8.18
2017-11-16T16:32:34.764Z,8.09
2017-11-16T16:47:34.505Z,7.98
2017-11-16T17:02:34.638Z,7.90
2017-11-16T17:17:34.393Z,7.89
2017-11-16T17:32:37.797Z,7.82
2017-11-16T17:47:34.725Z,7.75
2017-11-16T18:02:34.676Z,7.70
2017-11-16T18:17:34.625Z,7.70
2017-11-16T18:32:36.753Z,7.60
2017-11-16T18:47:35.249Z,7.59
2017-11-16T19:02:35.634Z,7.60
2017-11-16T19:17:37.471Z,7.57
2017-11-16T19:32:34.504Z,7.54
2017-11-16T19:47:34.731Z,7.56
2017-11-16T20:02:33.667Z,7.60
2017-11-16T20:17:34.121Z,7.79
2017-11-16T20:32:34.744Z,7.99
2017-11-16T20:47:50.521Z,8.11
2017-11-16T21:02:34.481Z,8.28
2017-11-16T21:17:34.342Z,8.33
2017-11-16T21:32:51.277Z,8.31
2017-11-16T21:47:34.763Z,8.27
2017-11-16T22:02:34.661Z,8.27
2017-11-16T22:17:37.869Z,8.20
2017-11-16T22:32:35.086Z,8.19
2017-11-16T22:47:34.989Z,8.04
2017-11-16T23:02:35.222Z,8.03
2017-11-16T23:17:36.887Z,8.05
2017-11-16T23:32:36.274Z,8.03
2017-11-16T23:47:34.221Z,7.94
